Degray, Arkansas
Current Conditions -  °F | °C
As of 11:56 AM on Sunday 21 Dec 2014 (Local Time) from KADF Reporting Station
Broken Clouds Broken Clouds  
Wind Chill: 53°   Ceiling: 5000
Heat Index: 53°   Visibility: 10mi
Dew Point: 43°   Wind: 5mph
Humidity: 69%   Direction: 140°SE
Pressure: 30.12"   Gusts: NA
Location:  34.0941°N, 93.0475°W
Report Text: KADF 211756Z AUTO 14004KT 10SM BKN050 12/06 A3012 RMK AO2 58026 T01160061 10116 21005 BKN V SCT SLP214
Loading
Personal Weather Stations






























Interactive Weather Map New forecast layout! Learn more

10-Day Weather Forecast

Advertisements
Track Severe Weather on mobile